createdAt,value
2018-11-25T00:00:43.642Z,6.53
2018-11-25T00:03:11.398Z,6.56
2018-11-25T00:05:39.257Z,6.59
2018-11-25T00:08:06.966Z,6.60
2018-11-25T00:10:34.680Z,6.60
2018-11-25T00:13:02.397Z,6.63
2018-11-25T00:15:30.102Z,6.69
2018-11-25T00:17:57.814Z,6.69
2018-11-25T00:20:25.602Z,6.71
2018-11-25T00:22:56.240Z,6.74
2018-11-25T00:25:24.130Z,6.71
2018-11-25T00:27:51.894Z,6.73
2018-11-25T00:30:19.625Z,6.74
2018-11-25T00:32:47.371Z,6.86
2018-11-25T00:35:15.915Z,6.79
2018-11-25T00:37:48.301Z,6.83
2018-11-25T00:40:13.853Z,6.89
2018-11-25T00:42:42.186Z,6.89
2018-11-25T00:45:12.945Z,6.91
2018-11-25T00:47:40.842Z,6.91
2018-11-25T00:50:11.441Z,6.92
2018-11-25T00:52:39.145Z,6.91
2018-11-25T00:55:09.399Z,6.95
2018-11-25T00:57:37.105Z,6.99
2018-11-25T01:00:08.938Z,6.98
2018-11-25T01:02:36.691Z,7.02
2018-11-25T01:05:04.512Z,7.04
2018-11-25T01:07:32.297Z,7.03
2018-11-25T01:10:00.085Z,6.97
2018-11-25T01:12:27.754Z,6.97
2018-11-25T01:14:55.427Z,6.96
2018-11-25T01:17:23.093Z,6.97
2018-11-25T01:19:50.817Z,7.03
2018-11-25T01:22:18.555Z,7.08
2018-11-25T01:24:46.286Z,7.02
2018-11-25T01:27:14.203Z,7.07
2018-11-25T01:29:42.077Z,7.09
2018-11-25T01:32:09.855Z,7.15
2018-11-25T01:34:37.537Z,7.14
2018-11-25T01:37:05.737Z,7.10
2018-11-25T01:39:33.456Z,7.16
2018-11-25T01:42:01.134Z,7.15
2018-11-25T01:44:28.973Z,7.17
2018-11-25T01:46:56.654Z,7.13
2018-11-25T01:49:24.463Z,7.11
2018-11-25T01:51:52.417Z,7.11
2018-11-25T01:54:20.075Z,7.09
2018-11-25T01:56:47.833Z,7.05
2018-11-25T01:59:15.518Z,7.05
2018-11-25T02:01:43.291Z,7.01
2018-11-25T02:04:11.004Z,6.95
2018-11-25T02:06:38.695Z,6.96
2018-11-25T02:09:07.974Z,6.92
2018-11-25T02:11:36.021Z,6.93
2018-11-25T02:14:04.054Z,6.93
2018-11-25T02:19:29.142Z,6.92
2018-11-25T02:21:56.852Z,6.91
2018-11-25T02:24:24.541Z,6.86
2018-11-25T02:26:52.405Z,6.94
2018-11-25T02:29:20.122Z,6.96
2018-11-25T02:31:47.835Z,6.95
2018-11-25T02:34:15.510Z,6.96
2018-11-25T02:36:43.305Z,6.95
2018-11-25T02:39:10.971Z,6.98
2018-11-25T02:41:38.665Z,6.93
2018-11-25T02:44:06.352Z,6.94
2018-11-25T02:46:34.078Z,6.91
2018-11-25T02:49:01.808Z,6.90
2018-11-25T02:51:29.540Z,6.90
2018-11-25T02:53:57.309Z,6.95
2018-11-25T02:56:25.066Z,6.88
2018-11-25T02:58:52.769Z,6.87
2018-11-25T03:01:20.431Z,6.82
2018-11-25T03:03:48.163Z,6.87
2018-11-25T03:06:15.867Z,6.86
2018-11-25T03:08:43.573Z,6.86
2018-11-25T03:11:11.293Z,6.85
2018-11-25T03:13:39.062Z,6.81
2018-11-25T03:16:06.796Z,6.80
2018-11-25T03:18:34.596Z,6.86
2018-11-25T03:21:02.267Z,6.83
2018-11-25T03:23:29.962Z,6.81
2018-11-25T03:25:57.707Z,6.80
2018-11-25T03:28:25.401Z,6.79
2018-11-25T03:30:53.105Z,6.81
2018-11-25T03:33:20.761Z,6.82
2018-11-25T03:35:48.485Z,6.79
2018-11-25T03:38:16.134Z,6.77
2018-11-25T03:40:43.895Z,6.72
2018-11-25T03:43:11.598Z,6.71
2018-11-25T03:45:39.301Z,6.76
2018-11-25T03:48:07.137Z,6.74
2018-11-25T03:50:34.847Z,6.76
2018-11-25T03:53:02.558Z,6.74
2018-11-25T03:55:30.286Z,6.70
2018-11-25T03:57:58.014Z,6.67
2018-11-25T04:00:25.726Z,6.69
2018-11-25T04:02:54.074Z,6.61
2018-11-25T04:05:21.757Z,6.57
2018-11-25T04:07:49.574Z,6.63
2018-11-25T04:10:18.544Z,6.59
2018-11-25T04:12:46.278Z,6.55
2018-11-25T04:15:15.369Z,6.59
2018-11-25T04:17:46.663Z,6.48
2018-11-25T04:20:15.798Z,6.35
2018-11-25T04:22:43.530Z,6.34
2018-11-25T04:25:11.994Z,6.28
2018-11-25T04:27:39.772Z,6.39
2018-11-25T04:30:13.134Z,6.28
2018-11-25T04:32:40.955Z,6.39
2018-11-25T04:35:10.150Z,6.44
2018-11-25T04:37:37.981Z,6.42
2018-11-25T04:40:08.097Z,6.36
2018-11-25T04:42:35.802Z,6.34
2018-11-25T04:45:03.759Z,6.32
2018-11-25T04:47:31.515Z,6.28
2018-11-25T04:49:59.217Z,6.34
2018-11-25T04:52:26.962Z,6.34
2018-11-25T04:54:54.673Z,6.31
2018-11-25T04:57:22.367Z,6.27
2018-11-25T04:59:50.029Z,6.29
2018-11-25T05:02:17.639Z,6.31
2018-11-25T05:04:45.294Z,6.31
2018-11-25T05:07:12.994Z,6.26
2018-11-25T05:09:40.647Z,6.28
2018-11-25T05:12:08.363Z,6.32
2018-11-25T05:14:36.066Z,6.25
2018-11-25T05:17:03.810Z,6.25
2018-11-25T05:19:31.501Z,6.33
2018-11-25T05:21:59.157Z,6.27
2018-11-25T05:24:26.870Z,6.19
2018-11-25T05:26:54.630Z,6.17
2018-11-25T05:29:22.350Z,6.17
2018-11-25T05:31:49.994Z,6.11
2018-11-25T05:34:17.704Z,6.12
2018-11-25T05:36:45.501Z,6.17
2018-11-25T05:39:13.216Z,6.22
2018-11-25T05:41:40.894Z,6.25
2018-11-25T05:44:08.576Z,6.28
2018-11-25T05:46:36.277Z,6.28
2018-11-25T05:49:04.002Z,6.28
2018-11-25T05:51:31.666Z,6.18
2018-11-25T05:53:59.338Z,6.15
2018-11-25T05:56:26.989Z,6.17
2018-11-25T05:58:54.653Z,6.19
2018-11-25T06:01:22.356Z,6.18
2018-11-25T06:03:50.069Z,6.20
2018-11-25T06:06:17.791Z,6.05
2018-11-25T06:08:45.441Z,6.06
2018-11-25T06:11:13.110Z,6.09
2018-11-25T06:13:40.752Z,6.11
2018-11-25T06:16:08.414Z,6.10
2018-11-25T06:18:36.093Z,6.12
2018-11-25T06:21:04.113Z,6.13
2018-11-25T06:23:31.838Z,6.11
2018-11-25T06:25:59.483Z,6.17
2018-11-25T06:28:27.307Z,6.16
2018-11-25T06:30:55.026Z,6.09
2018-11-25T06:33:22.732Z,6.11
2018-11-25T06:35:50.427Z,6.12
2018-11-25T06:38:18.198Z,6.11
2018-11-25T06:40:45.888Z,6.15
2018-11-25T06:43:13.594Z,6.13
2018-11-25T06:45:41.302Z,6.16
2018-11-25T06:48:09.032Z,6.19
2018-11-25T06:50:36.687Z,6.06
2018-11-25T06:53:04.495Z,6.03
2018-11-25T06:55:32.224Z,6.03
2018-11-25T06:57:59.950Z,6.06
2018-11-25T07:00:27.670Z,6.11
2018-11-25T07:02:56.134Z,6.12
2018-11-25T07:05:23.820Z,6.08
2018-11-25T07:07:54.558Z,6.04
2018-11-25T07:10:22.777Z,6.05
2018-11-25T07:12:52.062Z,6.06
2018-11-25T07:15:19.748Z,6.10
2018-11-25T07:17:47.582Z,6.14
2018-11-25T07:20:18.150Z,6.14
2018-11-25T07:22:45.838Z,6.08
2018-11-25T07:25:18.950Z,6.09
2018-11-25T07:27:46.706Z,6.12
2018-11-25T07:30:16.390Z,6.18
2018-11-25T07:32:44.103Z,6.22
2018-11-25T07:35:11.739Z,6.27
2018-11-25T07:37:39.438Z,6.31
2018-11-25T07:40:13.141Z,6.24
2018-11-25T07:42:40.861Z,6.28
2018-11-25T07:45:12.286Z,6.25
2018-11-25T07:47:40.014Z,6.13
2018-11-25T07:50:09.602Z,6.13
2018-11-25T07:52:37.460Z,6.11
2018-11-25T07:55:08.770Z,6.06
2018-11-25T07:57:36.454Z,6.01
2018-11-25T08:00:10.450Z,6.00
2018-11-25T08:02:41.599Z,5.91
2018-11-25T08:05:11.128Z,5.78
2018-11-25T08:07:38.853Z,5.73
2018-11-25T08:10:09.670Z,5.76
2018-11-25T08:12:37.486Z,5.69
2018-11-25T08:15:09.856Z,5.62
2018-11-25T08:17:38.102Z,5.71
2018-11-25T08:20:08.781Z,5.71
2018-11-25T08:22:37.293Z,5.67
2018-11-25T08:25:08.466Z,5.62
2018-11-25T08:27:36.246Z,5.71
2018-11-25T08:30:08.951Z,5.80
2018-11-25T08:32:36.789Z,5.88
2018-11-25T08:35:05.676Z,6.06
2018-11-25T08:37:33.402Z,6.12
2018-11-25T08:40:01.106Z,6.31
2018-11-25T08:42:29.110Z,6.52
2018-11-25T08:44:56.815Z,6.57
2018-11-25T08:47:24.503Z,6.62
2018-11-25T08:49:52.337Z,6.67
2018-11-25T08:52:20.230Z,6.78
2018-11-25T08:54:48.202Z,7.21
2018-11-25T08:57:17.457Z,7.15
2018-11-25T08:59:45.386Z,7.24
2018-11-25T09:02:13.278Z,7.50
2018-11-25T09:04:41.147Z,7.49
2018-11-25T09:07:08.858Z,7.43
2018-11-25T09:09:36.674Z,7.47
2018-11-25T09:12:04.552Z,7.35
2018-11-25T09:14:32.336Z,7.28
2018-11-25T09:17:03.890Z,7.26
2018-11-25T09:19:31.707Z,7.24
2018-11-25T09:21:59.930Z,7.24
2018-11-25T09:24:27.179Z,7.27
2018-11-25T09:26:54.895Z,7.29
2018-11-25T09:29:22.639Z,7.37
2018-11-25T09:31:50.330Z,7.39
2018-11-25T09:34:18.006Z,7.38
2018-11-25T09:36:45.742Z,7.49
2018-11-25T09:39:13.514Z,7.50
2018-11-25T09:41:41.219Z,7.49
2018-11-25T09:44:09.014Z,7.42
2018-11-25T09:46:42.580Z,7.60
2018-11-25T09:49:05.198Z,7.63
2018-11-25T09:51:32.954Z,7.63
2018-11-25T09:54:00.698Z,7.64
2018-11-25T09:56:28.460Z,7.60
2018-11-25T09:58:56.328Z,7.56
2018-11-25T10:01:24.000Z,7.53
2018-11-25T10:03:51.760Z,7.53
2018-11-25T10:06:19.553Z,7.51
2018-11-25T10:08:47.260Z,7.51
2018-11-25T10:11:15.115Z,7.46
2018-11-25T10:13:42.862Z,7.44
2018-11-25T10:16:10.652Z,7.43
2018-11-25T10:18:38.418Z,7.42
2018-11-25T10:21:06.142Z,7.40
2018-11-25T10:23:33.887Z,7.47
2018-11-25T10:26:01.578Z,7.52
2018-11-25T10:28:29.298Z,7.48
2018-11-25T10:30:56.982Z,7.47
2018-11-25T10:33:24.674Z,7.45
2018-11-25T10:35:52.390Z,7.48
2018-11-25T10:38:20.122Z,7.54
2018-11-25T10:40:47.802Z,7.57
2018-11-25T10:43:15.612Z,7.64
2018-11-25T10:45:43.409Z,7.72
2018-11-25T10:48:11.126Z,7.79
2018-11-25T10:50:38.766Z,7.88
2018-11-25T10:53:06.528Z,7.94
2018-11-25T10:55:34.673Z,8.05
2018-11-25T10:58:02.358Z,8.12
2018-11-25T11:00:37.619Z,8.28
2018-11-25T11:03:13.618Z,8.37
2018-11-25T11:05:47.169Z,8.40
2018-11-25T11:08:14.989Z,8.46
2018-11-25T11:10:42.726Z,8.48
2018-11-25T11:13:10.484Z,8.53
2018-11-25T11:15:38.133Z,8.62
2018-11-25T11:18:06.725Z,8.62
2018-11-25T11:20:34.439Z,8.69
2018-11-25T11:23:03.613Z,8.72
2018-11-25T11:25:31.605Z,8.81
2018-11-25T11:27:59.250Z,8.84
2018-11-25T11:30:26.975Z,8.91
2018-11-25T11:32:54.770Z,9.04
2018-11-25T11:35:22.486Z,9.15
2018-11-25T11:37:50.210Z,9.18
2018-11-25T11:40:17.895Z,9.19
2018-11-25T11:42:45.615Z,9.32
2018-11-25T11:45:14.661Z,9.28
2018-11-25T11:47:43.451Z,9.37
2018-11-25T11:50:13.820Z,9.34
2018-11-25T11:52:41.578Z,9.26
2018-11-25T11:55:10.895Z,9.37
2018-11-25T11:57:39.494Z,9.42
2018-11-25T12:00:28.241Z,9.50
2018-11-25T12:02:56.038Z,9.54
2018-11-25T12:05:28.406Z,9.61
2018-11-25T12:07:56.280Z,9.60
2018-11-25T12:10:23.945Z,9.65
2018-11-25T12:12:51.642Z,9.64
2018-11-25T12:15:29.932Z,9.66
2018-11-25T12:17:50.564Z,9.67
2018-11-25T12:20:21.308Z,9.63
2018-11-25T12:22:47.255Z,9.70
2018-11-25T12:25:16.343Z,9.66
2018-11-25T12:27:44.004Z,9.69
2018-11-25T12:30:13.273Z,9.77
2018-11-25T12:32:42.143Z,9.80
2018-11-25T12:35:11.232Z,9.67
2018-11-25T12:37:38.966Z,9.75
2018-11-25T12:40:13.951Z,9.76
2018-11-25T12:42:43.278Z,9.81
2018-11-25T12:45:13.070Z,9.84
2018-11-25T12:47:40.842Z,9.88
2018-11-25T12:50:11.561Z,9.94
2018-11-25T12:52:39.465Z,9.99
2018-11-25T12:55:10.499Z,10.00
2018-11-25T12:57:38.249Z,10.05
2018-11-25T13:00:24.978Z,10.19
2018-11-25T13:02:52.789Z,10.25
2018-11-25T13:05:20.537Z,10.27
2018-11-25T13:07:48.270Z,10.26
2018-11-25T13:10:19.674Z,10.29
2018-11-25T13:12:47.441Z,10.35
2018-11-25T13:15:15.142Z,10.37
2018-11-25T13:17:42.898Z,10.31
2018-11-25T13:20:14.043Z,10.09
2018-11-25T13:22:41.798Z,10.19
2018-11-25T13:25:12.265Z,10.20
2018-11-25T13:27:40.051Z,10.23
2018-11-25T13:30:12.967Z,10.27
2018-11-25T13:32:40.690Z,10.23
2018-11-25T13:35:09.434Z,10.18
2018-11-25T13:37:38.152Z,10.15
2018-11-25T13:40:09.758Z,10.20
2018-11-25T13:42:37.534Z,10.10
2018-11-25T13:45:03.871Z,10.07
2018-11-25T13:47:31.570Z,10.15
2018-11-25T13:49:59.374Z,10.10
2018-11-25T13:52:27.070Z,10.07
2018-11-25T13:54:54.786Z,10.11
2018-11-25T13:57:22.558Z,10.03
2018-11-25T13:59:50.250Z,10.00
2018-11-25T14:02:17.978Z,10.00
2018-11-25T14:04:45.662Z,9.93
2018-11-25T14:07:13.375Z,9.90
2018-11-25T14:09:41.013Z,9.97
2018-11-25T14:12:08.767Z,9.76
2018-11-25T14:14:36.460Z,9.65
2018-11-25T14:17:04.341Z,9.63
2018-11-25T14:19:32.642Z,9.53
2018-11-25T14:22:00.353Z,9.36
2018-11-25T14:24:28.042Z,9.38
2018-11-25T14:26:58.593Z,9.47
2018-11-25T14:29:26.866Z,9.42
2018-11-25T14:31:54.642Z,9.41
2018-11-25T14:34:22.294Z,9.25
2018-11-25T14:36:49.998Z,9.28
2018-11-25T14:39:17.686Z,9.26
2018-11-25T14:41:45.469Z,9.20
2018-11-25T14:44:13.152Z,9.09
2018-11-25T14:46:40.899Z,8.99
2018-11-25T14:49:08.668Z,9.03
2018-11-25T14:51:36.422Z,9.01
2018-11-25T14:54:04.439Z,8.96
2018-11-25T14:56:32.256Z,8.98
2018-11-25T14:58:59.990Z,8.95
2018-11-25T15:01:27.651Z,8.80
2018-11-25T15:03:56.623Z,8.85
2018-11-25T15:06:29.261Z,8.65
2018-11-25T15:08:52.323Z,8.57
2018-11-25T15:11:20.097Z,8.40
2018-11-25T15:13:47.810Z,8.34
2018-11-25T15:16:15.649Z,8.24
2018-11-25T15:18:43.445Z,8.18
2018-11-25T15:21:12.814Z,8.13
2018-11-25T15:23:40.991Z,7.96
2018-11-25T15:26:12.596Z,7.93
2018-11-25T15:28:40.314Z,7.84
2018-11-25T15:31:08.082Z,7.64
2018-11-25T15:33:36.258Z,7.72
2018-11-25T15:36:04.447Z,7.70
2018-11-25T15:38:32.165Z,7.49
2018-11-25T15:40:59.907Z,7.40
2018-11-25T15:43:27.678Z,7.48
2018-11-25T15:45:55.364Z,7.34
2018-11-25T15:48:26.948Z,7.26
2018-11-25T15:50:54.410Z,7.27
2018-11-25T15:53:22.117Z,7.22
2018-11-25T15:55:54.178Z,7.10
2018-11-25T15:58:21.851Z,7.10
2018-11-25T16:00:49.590Z,7.04
2018-11-25T16:03:17.329Z,6.96
2018-11-25T16:05:47.905Z,6.92
2018-11-25T16:08:15.621Z,6.89
2018-11-25T16:10:43.371Z,6.86
2018-11-25T16:13:11.017Z,6.82
2018-11-25T16:15:38.762Z,6.80
2018-11-25T16:18:06.846Z,6.79
2018-11-25T16:20:36.931Z,6.75
2018-11-25T16:23:07.825Z,6.72
2018-11-25T16:25:47.146Z,6.70
2018-11-25T16:28:20.544Z,6.67
2018-11-25T16:30:48.181Z,6.73
2018-11-25T16:33:15.899Z,6.74
2018-11-25T16:35:43.608Z,6.66
2018-11-25T16:38:11.307Z,6.67
2018-11-25T16:40:39.041Z,6.67
2018-11-25T16:43:06.873Z,6.60
2018-11-25T16:45:34.623Z,6.71
2018-11-25T16:48:02.299Z,6.60
2018-11-25T16:50:30.073Z,6.57
2018-11-25T16:52:57.793Z,6.53
2018-11-25T16:55:25.491Z,6.54
2018-11-25T16:57:53.267Z,6.58
2018-11-25T17:00:21.069Z,6.52
2018-11-25T17:02:48.749Z,6.49
2018-11-25T17:05:19.638Z,6.51
2018-11-25T17:07:51.813Z,6.51
2018-11-25T17:10:19.571Z,6.47
2018-11-25T17:12:47.278Z,6.43
2018-11-25T17:15:23.581Z,6.38
2018-11-25T17:17:51.330Z,6.26
2018-11-25T17:20:19.083Z,6.27
2018-11-25T17:22:46.838Z,6.29
2018-11-25T17:25:14.626Z,6.22
2018-11-25T17:27:42.729Z,6.18
2018-11-25T17:30:14.082Z,6.23
2018-11-25T17:32:42.514Z,6.18
2018-11-25T17:35:13.691Z,6.18
2018-11-25T17:37:41.426Z,6.19
2018-11-25T17:40:09.927Z,6.19
2018-11-25T17:42:38.106Z,6.15
2018-11-25T17:45:08.821Z,6.14
2018-11-25T17:47:36.498Z,6.21
2018-11-25T17:50:09.728Z,6.14
2018-11-25T17:52:37.360Z,6.17
2018-11-25T17:55:08.342Z,6.13
2018-11-25T17:57:36.110Z,6.18
2018-11-25T18:00:09.886Z,6.14
2018-11-25T18:02:37.678Z,6.19
2018-11-25T18:05:06.544Z,6.13
2018-11-25T18:07:34.530Z,6.12
2018-11-25T18:10:03.098Z,6.16
2018-11-25T18:12:30.832Z,6.22
2018-11-25T18:14:59.474Z,6.27
2018-11-25T18:17:27.985Z,6.15
2018-11-25T18:19:56.653Z,6.08
2018-11-25T18:22:28.051Z,6.01
2018-11-25T18:24:56.885Z,6.05
2018-11-25T18:27:25.302Z,6.06
2018-11-25T18:29:53.686Z,6.04
2018-11-25T18:32:22.817Z,6.05
2018-11-25T18:34:51.121Z,6.01
2018-11-25T18:37:19.631Z,5.92
2018-11-25T18:39:47.412Z,6.01
2018-11-25T18:42:15.289Z,5.96
2018-11-25T18:44:43.191Z,5.90
2018-11-25T18:47:11.110Z,5.92
2018-11-25T18:49:39.349Z,5.89
2018-11-25T18:52:07.770Z,5.87
2018-11-25T18:54:45.822Z,5.77
2018-11-25T18:57:13.538Z,5.77
2018-11-25T18:59:42.108Z,5.72
2018-11-25T19:02:15.349Z,5.63
2018-11-25T19:04:43.650Z,5.63
2018-11-25T19:07:12.288Z,5.58
2018-11-25T19:09:40.320Z,5.64
2018-11-25T19:12:08.094Z,5.64
2018-11-25T19:14:36.546Z,5.52
2018-11-25T19:17:05.034Z,5.52
2018-11-25T19:19:33.929Z,5.46
2018-11-25T19:22:02.260Z,5.44
2018-11-25T19:24:30.757Z,5.45
2018-11-25T19:26:58.729Z,5.44
2018-11-25T19:29:27.167Z,5.43
2018-11-25T19:31:55.754Z,5.41
2018-11-25T19:34:23.850Z,5.38
2018-11-25T19:36:51.901Z,5.37
2018-11-25T19:39:19.748Z,5.37
2018-11-25T19:41:47.764Z,5.37
2018-11-25T19:44:16.159Z,5.35
2018-11-25T19:46:44.931Z,5.31
2018-11-25T19:49:12.679Z,5.31
2018-11-25T19:51:41.080Z,5.32
2018-11-25T19:54:09.873Z,5.32
2018-11-25T19:56:41.514Z,5.32
2018-11-25T19:59:10.359Z,5.28
2018-11-25T20:01:38.129Z,5.25
2018-11-25T20:04:06.435Z,5.24
2018-11-25T20:06:35.440Z,5.26
2018-11-25T20:09:04.891Z,5.23
2018-11-25T20:11:33.055Z,5.27
2018-11-25T20:14:01.531Z,5.22
2018-11-25T20:16:35.363Z,5.20
2018-11-25T20:19:03.948Z,5.22
2018-11-25T20:21:37.794Z,5.17
2018-11-25T20:24:05.602Z,5.10
2018-11-25T20:29:30.102Z,5.06
2018-11-25T20:32:03.525Z,5.06
2018-11-25T20:34:31.306Z,5.05
2018-11-25T20:36:59.041Z,5.07
2018-11-25T20:39:31.550Z,5.06
2018-11-25T20:41:59.273Z,5.00
2018-11-25T20:44:27.042Z,5.02
2018-11-25T20:47:00.307Z,4.99
2018-11-25T20:49:28.109Z,4.97
2018-11-25T20:52:01.476Z,4.91
2018-11-25T20:54:29.114Z,4.82
2018-11-25T20:56:56.862Z,4.79
2018-11-25T20:59:24.582Z,4.79
2018-11-25T21:01:56.342Z,4.75
2018-11-25T21:04:26.637Z,4.65
2018-11-25T21:06:54.496Z,4.59
2018-11-25T21:09:22.158Z,4.54
2018-11-25T21:11:49.886Z,4.54
2018-11-25T21:14:17.602Z,4.65
2018-11-25T21:16:45.318Z,4.54
2018-11-25T21:19:13.240Z,4.45
2018-11-25T21:21:40.944Z,4.40
2018-11-25T21:24:08.631Z,4.33
2018-11-25T21:26:36.554Z,4.27
2018-11-25T21:29:04.745Z,4.25
2018-11-25T21:31:32.487Z,4.28
2018-11-25T21:34:00.166Z,4.26
2018-11-25T21:36:27.842Z,4.31
2018-11-25T21:38:55.554Z,4.30
2018-11-25T21:41:23.366Z,4.29
2018-11-25T21:43:51.243Z,4.29
2018-11-25T21:46:18.968Z,4.32
2018-11-25T21:48:46.674Z,4.29
2018-11-25T21:51:14.439Z,4.29
2018-11-25T21:53:42.230Z,4.28
2018-11-25T21:56:14.279Z,4.29
2018-11-25T21:58:37.842Z,4.37
2018-11-25T22:01:07.142Z,4.39
2018-11-25T22:03:34.886Z,4.38
2018-11-25T22:06:02.716Z,4.39
2018-11-25T22:08:30.374Z,4.42
2018-11-25T22:10:58.092Z,4.44
2018-11-25T22:13:25.793Z,4.40
2018-11-25T22:15:53.517Z,4.42
2018-11-25T22:18:21.338Z,4.45
2018-11-25T22:20:49.075Z,4.47
2018-11-25T22:23:16.873Z,4.51
2018-11-25T22:25:44.983Z,4.50
2018-11-25T22:28:12.710Z,4.57
2018-11-25T22:30:40.459Z,4.64
2018-11-25T22:33:08.186Z,4.70
2018-11-25T22:35:36.014Z,4.75
2018-11-25T22:38:03.774Z,4.81
2018-11-25T22:40:31.517Z,4.80
2018-11-25T22:42:59.242Z,4.86
2018-11-25T22:45:26.962Z,4.91
2018-11-25T22:47:54.688Z,4.93
2018-11-25T22:50:25.536Z,4.96
2018-11-25T22:52:50.279Z,4.97
2018-11-25T22:55:19.966Z,5.00
2018-11-25T22:57:47.853Z,5.03
2018-11-25T23:00:27.069Z,5.04
2018-11-25T23:02:54.724Z,5.07
2018-11-25T23:06:07.990Z,5.04
2018-11-25T23:08:35.727Z,5.00
2018-11-25T23:11:05.619Z,5.03
2018-11-25T23:13:33.338Z,5.02
2018-11-25T23:16:00.978Z,5.05
2018-11-25T23:18:28.674Z,5.05
2018-11-25T23:20:56.393Z,5.07
2018-11-25T23:23:24.201Z,5.10
2018-11-25T23:25:52.013Z,5.12
2018-11-25T23:28:19.746Z,5.15
2018-11-25T23:30:47.434Z,5.22
2018-11-25T23:33:15.141Z,5.22
2018-11-25T23:35:46.802Z,5.30
2018-11-25T23:38:14.573Z,5.29
2018-11-25T23:40:42.290Z,5.32
2018-11-25T23:43:10.039Z,5.35
2018-11-25T23:45:37.794Z,5.36
2018-11-25T23:48:05.830Z,5.37
2018-11-25T23:50:33.554Z,5.40
2018-11-25T23:53:01.317Z,5.40
2018-11-25T23:55:29.061Z,5.43
2018-11-25T23:57:56.824Z,5.42
